createdAt,value
2018-05-08T00:01:45.011Z,101628.66
2018-05-08T00:04:18.130Z,101624.20
2018-05-08T00:06:49.547Z,101625.86
2018-05-08T00:09:21.472Z,101624.95
2018-05-08T00:11:53.488Z,101616.00
2018-05-08T00:14:26.446Z,101626.69
2018-05-08T00:16:57.966Z,101622.11
2018-05-08T00:19:29.579Z,101624.06
2018-05-08T00:22:01.486Z,101625.48
2018-05-08T00:26:45.320Z,101632.88
2018-05-08T00:29:16.934Z,101625.22
2018-05-08T00:31:48.807Z,101621.88
2018-05-08T00:34:20.595Z,101623.91
2018-05-08T00:36:52.118Z,101622.48
2018-05-08T00:39:23.577Z,101618.18
2018-05-08T00:41:55.784Z,101623.48
2018-05-08T00:44:27.489Z,101625.08
2018-05-08T00:47:00.342Z,101626.37
2018-05-08T00:49:31.974Z,101620.20
2018-05-08T00:52:03.489Z,101617.45
2018-05-08T00:54:46.376Z,101620.48
2018-05-08T00:57:19.383Z,101623.63
2018-05-08T00:59:51.015Z,101617.77
2018-05-08T01:02:23.478Z,101614.62
2018-05-08T01:04:55.021Z,101617.50
2018-05-08T01:07:27.630Z,101621.41
2018-05-08T01:09:59.269Z,101617.14
2018-05-08T01:12:32.169Z,101614.39
2018-05-08T01:15:04.027Z,101617.69
2018-05-08T01:17:35.900Z,101614.67
2018-05-08T01:20:07.489Z,101617.02
2018-05-08T01:22:39.115Z,101608.98
2018-05-08T01:25:12.408Z,101610.27
2018-05-08T01:27:44.233Z,101613.54
2018-05-08T01:30:17.427Z,101610.69
2018-05-08T01:32:49.399Z,101612.47
2018-05-08T01:35:21.452Z,101603.07
2018-05-08T01:37:54.804Z,101607.98
2018-05-08T01:40:27.447Z,101610.45
2018-05-08T01:45:09.470Z,101600.48
2018-05-08T01:47:41.225Z,101603.91
2018-05-08T01:50:12.892Z,101608.01
2018-05-08T01:52:44.411Z,101606.49
2018-05-08T01:55:16.107Z,101611.86
2018-05-08T01:57:50.073Z,101615.64
2018-05-08T02:00:21.958Z,101618.42
2018-05-08T02:05:25.554Z,101621.36
2018-05-08T02:07:56.336Z,101620.51
2018-05-08T02:10:28.549Z,101624.27
2018-05-08T02:13:00.446Z,101623.00
2018-05-08T02:15:32.107Z,101631.59
2018-05-08T02:18:04.044Z,101621.29
2018-05-08T02:20:37.447Z,101620.62
2018-05-08T02:23:09.897Z,101618.31
2018-05-08T02:25:41.981Z,101622.58
2018-05-08T02:28:15.722Z,101615.33
2018-05-08T02:30:47.520Z,101622.81
2018-05-08T02:33:20.465Z,101625.46
2018-05-08T02:35:52.148Z,101626.09
2018-05-08T02:38:23.968Z,101622.25
2018-05-08T02:40:56.077Z,101622.83
2018-05-08T02:43:28.092Z,101622.16
2018-05-08T02:46:00.650Z,101624.02
2018-05-08T02:48:33.910Z,101621.58
2018-05-08T02:51:05.787Z,101625.57
2018-05-08T02:53:38.340Z,101626.18
2018-05-08T02:56:10.544Z,101635.52
2018-05-08T02:58:44.449Z,101642.34
2018-05-08T03:01:16.091Z,101648.42
2018-05-08T03:03:48.071Z,101659.06
2018-05-08T03:06:21.239Z,101652.55
2018-05-08T03:08:53.540Z,101658.30
2018-05-08T03:11:25.977Z,101661.69
2018-05-08T03:13:57.804Z,101662.51
2018-05-08T03:16:29.928Z,101657.75
2018-05-08T03:19:02.051Z,101660.76
2018-05-08T03:21:34.551Z,101661.70
2018-05-08T03:24:06.966Z,101663.20
2018-05-08T03:26:40.300Z,101665.88
2018-05-08T03:29:12.255Z,101665.02
2018-05-08T03:31:44.109Z,101676.75
2018-05-08T03:34:16.070Z,101677.27
2018-05-08T03:36:48.115Z,101680.13
2018-05-08T03:39:21.147Z,101684.74
2018-05-08T03:41:52.772Z,101676.84
2018-05-08T03:44:24.887Z,101675.05
2018-05-08T03:46:57.037Z,101680.45
2018-05-08T03:49:28.545Z,101673.42
2018-05-08T03:52:53.933Z,101674.41
2018-05-08T03:55:27.444Z,101676.29
2018-05-08T03:57:59.944Z,101671.97
2018-05-08T04:00:43.569Z,101673.64
2018-05-08T04:03:26.200Z,101675.56
2018-05-08T04:06:03.941Z,101681.38
2018-05-08T04:08:36.412Z,101681.51
2018-05-08T04:11:08.249Z,101684.23
2018-05-08T04:13:40.054Z,101675.81
2018-05-08T04:18:12.939Z,101677.84
2018-05-08T04:20:48.078Z,101685.02
2018-05-08T04:23:19.624Z,101685.75
2018-05-08T04:25:51.941Z,101681.75
2018-05-08T04:28:24.423Z,101687.58
2018-05-08T04:30:56.938Z,101681.28
2018-05-08T04:33:29.494Z,101681.08
2018-05-08T04:36:01.336Z,101692.05
2018-05-08T04:38:38.521Z,101690.09
2018-05-08T04:41:11.225Z,101693.82
2018-05-08T04:43:44.331Z,101695.85
2018-05-08T04:46:15.978Z,101698.48
2018-05-08T04:48:48.544Z,101707.28
2018-05-08T04:51:20.553Z,101707.70
2018-05-08T04:53:51.999Z,101708.03
2018-05-08T04:56:25.429Z,101716.67
2018-05-08T04:58:57.980Z,101719.70
2018-05-08T05:01:31.558Z,101713.80
2018-05-08T05:04:07.012Z,101715.55
2018-05-08T05:06:38.556Z,101716.77
2018-05-08T05:09:10.021Z,101712.97
2018-05-08T05:11:41.557Z,101712.75
2018-05-08T05:14:14.387Z,101720.69
2018-05-08T05:16:46.010Z,101718.65
2018-05-08T05:19:18.419Z,101717.67
2018-05-08T05:21:51.105Z,101716.97
2018-05-08T05:24:23.173Z,101720.88
2018-05-08T05:26:55.133Z,101715.70
2018-05-08T05:32:14.437Z,101713.09
2018-05-08T05:34:46.348Z,101721.25
2018-05-08T05:37:18.965Z,101715.64
2018-05-08T05:39:50.926Z,101721.11
2018-05-08T05:42:22.675Z,101716.67
2018-05-08T05:44:54.409Z,101714.69
2018-05-08T05:47:26.566Z,101713.20
2018-05-08T05:49:58.105Z,101712.19
2018-05-08T05:52:30.015Z,101719.84
2018-05-08T05:55:01.603Z,101716.28
2018-05-08T05:57:35.467Z,101712.83
2018-05-08T06:00:07.447Z,101712.34
2018-05-08T06:02:39.142Z,101709.53
2018-05-08T06:05:12.460Z,101704.54
2018-05-08T06:07:44.357Z,101714.33
2018-05-08T06:10:16.096Z,101706.34
2018-05-08T06:12:47.876Z,101709.42
2018-05-08T06:15:21.494Z,101704.95
2018-05-08T06:17:53.291Z,101701.49
2018-05-08T06:20:24.962Z,101707.11
2018-05-08T06:22:58.109Z,101710.66
2018-05-08T06:25:30.879Z,101702.91
2018-05-08T06:28:03.488Z,101700.52
2018-05-08T06:30:36.011Z,101697.84
2018-05-08T06:33:09.160Z,101699.77
2018-05-08T06:35:42.487Z,101696.41
2018-05-08T06:38:15.491Z,101694.02
2018-05-08T06:40:49.322Z,101692.08
2018-05-08T06:43:22.713Z,101690.23
2018-05-08T06:45:57.002Z,101695.62
2018-05-08T06:48:30.503Z,101696.92
2018-05-08T06:51:03.474Z,101691.23
2018-05-08T06:53:37.489Z,101698.36
2018-05-08T06:56:10.303Z,101702.49
2018-05-08T06:58:44.103Z,101690.92
2018-05-08T07:01:17.373Z,101693.09
2018-05-08T07:03:50.625Z,101694.66
2018-05-08T07:06:24.468Z,101694.17
2018-05-08T07:08:57.678Z,101693.16
2018-05-08T07:11:30.485Z,101698.16
2018-05-08T07:14:05.457Z,101698.22
2018-05-08T07:16:38.426Z,101695.95
2018-05-08T07:19:11.757Z,101691.28
2018-05-08T07:21:48.708Z,101691.71
2018-05-08T07:24:21.866Z,101688.80
2018-05-08T07:26:55.018Z,101684.05
2018-05-08T07:29:27.496Z,101678.30
2018-05-08T07:32:00.835Z,101682.06
2018-05-08T07:34:33.481Z,101681.86
2018-05-08T07:37:07.039Z,101681.97
2018-05-08T07:39:40.856Z,101673.56
2018-05-08T07:42:14.112Z,101677.27
2018-05-08T07:44:47.459Z,101686.80
2018-05-08T07:47:22.343Z,101680.35
2018-05-08T07:49:55.642Z,101676.45
2018-05-08T07:52:29.454Z,101682.56
2018-05-08T07:55:02.345Z,101679.14
2018-05-08T07:57:35.657Z,101681.75
2018-05-08T08:00:08.526Z,101677.70
2018-05-08T08:02:42.514Z,101688.14
2018-05-08T08:05:16.057Z,101684.86
2018-05-08T08:07:48.577Z,101681.86
2018-05-08T08:10:22.830Z,101675.19
2018-05-08T08:12:55.548Z,101671.96
2018-05-08T08:15:29.476Z,101675.63
2018-05-08T08:18:03.469Z,101673.77
2018-05-08T08:20:36.431Z,101671.81
2018-05-08T08:23:09.434Z,101673.91
2018-05-08T08:25:43.287Z,101672.24
2018-05-08T08:28:16.315Z,101679.12
2018-05-08T08:30:49.596Z,101678.50
2018-05-08T08:33:21.451Z,101677.93
2018-05-08T08:35:54.417Z,101675.95
2018-05-08T08:38:27.594Z,101678.19
2018-05-08T08:41:00.504Z,101681.02
2018-05-08T08:43:33.158Z,101670.58
2018-05-08T08:46:06.959Z,101667.97
2018-05-08T08:48:40.535Z,101657.36
2018-05-08T08:51:16.040Z,101667.00
2018-05-08T08:53:49.412Z,101661.39
2018-05-08T08:56:23.607Z,101665.80
2018-05-08T08:58:56.561Z,101662.77
2018-05-08T09:01:29.516Z,101670.59
2018-05-08T09:04:02.594Z,101670.92
2018-05-08T09:06:35.730Z,101677.13
2018-05-08T09:09:09.482Z,101672.02
2018-05-08T09:11:42.675Z,101670.73
2018-05-08T09:14:15.910Z,101666.52
2018-05-08T09:16:48.970Z,101667.75
2018-05-08T09:19:23.337Z,101666.14
2018-05-08T09:21:56.141Z,101666.04
2018-05-08T09:24:29.711Z,101663.97
2018-05-08T09:27:03.727Z,101663.11
2018-05-08T09:29:36.782Z,101665.39
2018-05-08T09:32:10.334Z,101654.47
2018-05-08T09:34:43.729Z,101654.61
2018-05-08T09:37:16.303Z,101662.59
2018-05-08T09:39:49.445Z,101658.52
2018-05-08T09:42:22.676Z,101657.27
2018-05-08T09:44:55.505Z,101657.56
2018-05-08T09:47:28.566Z,101654.48
2018-05-08T09:50:01.656Z,101659.37
2018-05-08T09:52:35.475Z,101657.13
2018-05-08T09:55:09.107Z,101656.48
2018-05-08T09:57:41.830Z,101654.52
2018-05-08T10:00:14.562Z,101654.23
2018-05-08T10:02:47.245Z,101654.37
2018-05-08T10:05:20.651Z,101658.47
2018-05-08T10:07:53.579Z,101657.03
2018-05-08T10:10:26.443Z,101654.91
2018-05-08T10:12:59.771Z,101653.77
2018-05-08T10:15:33.456Z,101651.06
2018-05-08T10:18:06.259Z,101648.83
2018-05-08T10:20:39.759Z,101655.37
2018-05-08T10:23:13.234Z,101659.45
2018-05-08T10:25:46.688Z,101658.27
2018-05-08T10:28:19.446Z,101662.73
2018-05-08T10:30:52.347Z,101662.77
2018-05-08T10:33:24.981Z,101658.97
2018-05-08T10:35:57.487Z,101659.03
2018-05-08T10:38:30.930Z,101661.72
2018-05-08T10:41:04.025Z,101659.87
2018-05-08T10:43:37.449Z,101657.72
2018-05-08T10:46:10.350Z,101658.97
2018-05-08T10:48:42.619Z,101663.08
2018-05-08T10:51:15.457Z,101663.98
2018-05-08T10:53:48.568Z,101668.26
2018-05-08T10:56:21.897Z,101661.70
2018-05-08T10:58:55.254Z,101658.14
2018-05-08T11:01:28.111Z,101654.03
2018-05-08T11:04:00.964Z,101654.98
2018-05-08T11:06:33.984Z,101659.81
2018-05-08T11:09:07.437Z,101657.16
2018-05-08T11:13:58.000Z,101665.68
2018-05-08T11:16:30.704Z,101666.69
2018-05-08T11:19:03.165Z,101662.00
2018-05-08T11:21:35.987Z,101660.30
2018-05-08T11:24:09.070Z,101667.47
2018-05-08T11:26:42.595Z,101661.45
2018-05-08T11:29:15.501Z,101661.16
2018-05-08T11:31:49.071Z,101655.66
2018-05-08T11:34:21.849Z,101652.93
2018-05-08T11:36:55.338Z,101649.51
2018-05-08T11:39:27.727Z,101650.45
2018-05-08T11:42:00.413Z,101652.16
2018-05-08T11:44:33.729Z,101650.78
2018-05-08T11:47:07.588Z,101649.14
2018-05-08T11:49:39.286Z,101650.13
2018-05-08T11:52:12.443Z,101648.62
2018-05-08T11:54:44.973Z,101651.03
2018-05-08T11:57:18.599Z,101646.58
2018-05-08T11:59:51.204Z,101647.00
2018-05-08T12:02:24.428Z,101644.42
2018-05-08T12:04:57.715Z,101640.44
2018-05-08T12:07:31.108Z,101642.06
2018-05-08T12:10:04.632Z,101638.96
2018-05-08T12:12:37.688Z,101628.34
2018-05-08T12:15:09.452Z,101629.20
2018-05-08T12:17:42.420Z,101635.57
2018-05-08T12:20:15.488Z,101643.16
2018-05-08T12:22:48.548Z,101636.23
2018-05-08T12:25:21.778Z,101634.86
2018-05-08T12:27:55.469Z,101634.08
2018-05-08T12:30:27.996Z,101633.06
2018-05-08T12:34:05.540Z,101635.65
2018-05-08T12:36:38.967Z,101638.73
2018-05-08T12:39:12.002Z,101639.50
2018-05-08T12:41:45.062Z,101634.42
2018-05-08T12:44:18.414Z,101634.26
2018-05-08T12:46:51.949Z,101629.55
2018-05-08T12:49:24.955Z,101621.16
2018-05-08T12:51:57.451Z,101626.17
2018-05-08T12:54:31.490Z,101617.61
2018-05-08T12:57:05.228Z,101618.41
2018-05-08T12:59:37.969Z,101619.30
2018-05-08T13:02:11.605Z,101618.68
2018-05-08T13:04:45.011Z,101614.47
2018-05-08T13:07:17.782Z,101615.80
2018-05-08T13:09:51.043Z,101612.80
2018-05-08T13:12:23.718Z,101616.29
2018-05-08T13:14:56.417Z,101621.39
2018-05-08T13:17:29.328Z,101635.96
2018-05-08T13:20:02.551Z,101634.89
2018-05-08T13:22:36.236Z,101631.33
2018-05-08T13:25:09.457Z,101628.30
2018-05-08T13:27:42.854Z,101618.54
2018-05-08T13:30:15.585Z,101622.22
2018-05-08T13:32:48.699Z,101632.02
2018-05-08T13:35:21.965Z,101629.97
2018-05-08T13:37:55.317Z,101637.14
2018-05-08T13:40:28.328Z,101637.05
2018-05-08T13:43:00.963Z,101635.47
2018-05-08T13:45:34.335Z,101634.84
2018-05-08T13:48:07.200Z,101634.98
2018-05-08T13:50:40.698Z,101639.68
2018-05-08T13:53:14.511Z,101646.29
2018-05-08T13:55:47.231Z,101648.64
2018-05-08T13:58:19.577Z,101653.94
2018-05-08T14:00:52.552Z,101657.61
2018-05-08T14:03:25.443Z,101665.25
2018-05-08T14:05:58.201Z,101674.13
2018-05-08T14:08:30.966Z,101682.03
2018-05-08T14:11:03.967Z,101676.53
2018-05-08T14:13:37.229Z,101680.55
2018-05-08T14:16:10.347Z,101678.51
2018-05-08T14:18:43.429Z,101682.95
2018-05-08T14:21:16.402Z,101684.75
2018-05-08T14:23:49.542Z,101681.75
2018-05-08T14:26:22.620Z,101675.48
2018-05-08T14:28:55.597Z,101670.73
2018-05-08T14:31:27.535Z,101678.84
2018-05-08T14:34:00.459Z,101684.22
2018-05-08T14:36:33.031Z,101694.55
2018-05-08T14:39:06.083Z,101701.73
2018-05-08T14:41:38.969Z,101712.50
2018-05-08T14:44:12.570Z,101718.70
2018-05-08T14:46:46.107Z,101719.17
2018-05-08T14:49:19.435Z,101708.44
2018-05-08T14:51:52.958Z,101705.16
2018-05-08T14:54:25.736Z,101711.31
2018-05-08T14:56:58.662Z,101712.12
2018-05-08T14:59:31.428Z,101716.90
2018-05-08T15:02:05.567Z,101721.82
2018-05-08T15:04:39.058Z,101730.31
2018-05-08T15:07:12.425Z,101738.95
2018-05-08T15:09:46.559Z,101732.38
2018-05-08T15:12:19.916Z,101733.91
2018-05-08T15:14:53.349Z,101724.08
2018-05-08T15:17:26.424Z,101713.34
2018-05-08T15:19:59.089Z,101720.48
2018-05-08T15:22:32.135Z,101725.10
2018-05-08T15:25:05.091Z,101733.22
2018-05-08T15:27:38.138Z,101735.05
2018-05-08T15:30:11.268Z,101737.37
2018-05-08T15:32:44.496Z,101736.98
2018-05-08T15:35:18.346Z,101735.70
2018-05-08T15:37:51.516Z,101748.86
2018-05-08T15:40:24.673Z,101737.48
2018-05-08T15:42:58.300Z,101753.39
2018-05-08T15:45:30.819Z,101758.81
2018-05-08T15:48:04.353Z,101759.96
2018-05-08T15:50:37.072Z,101761.67
2018-05-08T15:53:09.930Z,101772.70
2018-05-08T15:55:43.321Z,101780.82
2018-05-08T15:58:16.644Z,101781.75
2018-05-08T16:00:49.434Z,101776.95
2018-05-08T16:03:22.331Z,101769.52
2018-05-08T16:05:54.973Z,101767.00
2018-05-08T16:08:27.132Z,101769.90
2018-05-08T16:10:59.868Z,101773.10
2018-05-08T16:13:33.510Z,101777.16
2018-05-08T16:16:07.537Z,101773.70
2018-05-08T16:18:41.101Z,101761.77
2018-05-08T16:21:14.459Z,101767.37
2018-05-08T16:23:47.442Z,101759.17
2018-05-08T16:26:20.455Z,101755.44
2018-05-08T16:28:53.119Z,101764.64
2018-05-08T16:31:26.641Z,101771.57
2018-05-08T16:33:59.591Z,101775.15
2018-05-08T16:36:32.603Z,101777.58
2018-05-08T16:39:05.951Z,101781.77
2018-05-08T16:41:39.461Z,101784.07
2018-05-08T16:44:13.283Z,101779.09
2018-05-08T16:46:45.996Z,101769.38
2018-05-08T16:49:18.753Z,101776.37
2018-05-08T16:51:51.611Z,101773.07
2018-05-08T16:54:25.425Z,101781.15
2018-05-08T16:56:57.496Z,101785.24
2018-05-08T16:59:31.255Z,101786.14
2018-05-08T17:02:03.959Z,101786.13
2018-05-08T17:04:36.403Z,101779.22
2018-05-08T17:07:08.774Z,101782.28
2018-05-08T17:09:42.530Z,101786.37
2018-05-08T17:12:15.748Z,101787.81
2018-05-08T17:17:25.425Z,101789.58
2018-05-08T17:19:58.691Z,101790.16
2018-05-08T17:22:31.504Z,101792.91
2018-05-08T17:25:04.552Z,101796.48
2018-05-08T17:27:36.941Z,101799.37
2018-05-08T17:30:09.824Z,101802.91
2018-05-08T17:32:43.406Z,101800.73
2018-05-08T17:35:16.049Z,101805.39
2018-05-08T17:37:49.100Z,101802.17
2018-05-08T17:40:22.326Z,101808.45
2018-05-08T17:42:55.614Z,101808.61
2018-05-08T17:45:28.569Z,101802.20
2018-05-08T17:48:01.420Z,101794.93
2018-05-08T17:50:34.534Z,101783.69
2018-05-08T17:53:07.553Z,101783.61
2018-05-08T17:55:40.553Z,101776.27
2018-05-08T17:58:13.405Z,101774.98
2018-05-08T18:02:34.655Z,101774.00
2018-05-08T18:05:08.428Z,101775.33
2018-05-08T18:07:41.512Z,101772.95
2018-05-08T18:10:14.060Z,101770.84
2018-05-08T18:12:47.050Z,101768.67
2018-05-08T18:15:19.803Z,101766.81
2018-05-08T18:17:53.249Z,101769.89
2018-05-08T18:20:25.776Z,101764.86
2018-05-08T18:22:58.772Z,101756.65
2018-05-08T18:25:31.546Z,101747.05
2018-05-08T18:28:05.402Z,101738.85
2018-05-08T18:30:38.413Z,101745.43
2018-05-08T18:33:11.419Z,101750.78
2018-05-08T18:35:44.215Z,101750.19
2018-05-08T18:38:17.829Z,101749.88
2018-05-08T18:40:50.962Z,101748.89
2018-05-08T18:43:24.403Z,101751.86
2018-05-08T18:45:56.875Z,101746.28
2018-05-08T18:48:29.810Z,101746.80
2018-05-08T18:51:03.054Z,101741.84
2018-05-08T18:53:35.450Z,101742.00
2018-05-08T18:56:08.039Z,101741.45
2018-05-08T18:58:41.610Z,101736.20
2018-05-08T19:01:14.563Z,101737.83
2018-05-08T19:03:48.613Z,101739.88
2018-05-08T19:09:17.469Z,101741.70
2018-05-08T19:11:51.417Z,101742.77
2018-05-08T19:14:24.900Z,101743.60
2018-05-08T19:16:57.964Z,101740.80
2018-05-08T19:19:35.537Z,101736.33
2018-05-08T19:22:09.107Z,101733.67
2018-05-08T19:24:42.324Z,101742.22
2018-05-08T19:27:15.185Z,101736.04
2018-05-08T19:29:52.678Z,101732.22
2018-05-08T19:32:26.329Z,101711.80
2018-05-08T19:35:03.972Z,101720.67
2018-05-08T19:40:56.503Z,101716.86
2018-05-08T19:43:29.659Z,101718.52
2018-05-08T19:46:02.442Z,101716.80
2018-05-08T19:48:35.446Z,101723.19
2018-05-08T19:51:08.441Z,101720.34
2018-05-08T19:53:41.421Z,101699.81
2018-05-08T19:56:14.720Z,101696.84
2018-05-08T19:58:47.539Z,101697.34
2018-05-08T20:01:20.431Z,101699.84
2018-05-08T20:03:53.295Z,101697.25
2018-05-08T20:06:26.404Z,101699.25
2018-05-08T20:08:59.542Z,101688.58
2018-05-08T20:11:32.640Z,101684.16
2018-05-08T20:14:04.482Z,101682.59
2018-05-08T20:16:37.104Z,101679.70
2018-05-08T20:19:10.480Z,101680.87
2018-05-08T20:21:43.636Z,101681.48
2018-05-08T20:24:16.619Z,101684.28
2018-05-08T20:26:49.073Z,101680.53
2018-05-08T20:29:22.445Z,101693.34
2018-05-08T20:31:55.426Z,101696.20
2018-05-08T20:34:28.145Z,101699.78
2018-05-08T20:37:01.417Z,101690.30
2018-05-08T20:39:34.186Z,101674.31
2018-05-08T20:42:07.032Z,101663.22
2018-05-08T20:44:40.583Z,101659.39
2018-05-08T20:47:13.112Z,101656.44
2018-05-08T20:49:46.163Z,101654.57
2018-05-08T20:52:19.543Z,101654.95
2018-05-08T20:54:52.942Z,101654.09
2018-05-08T20:57:24.614Z,101653.81
2018-05-08T20:59:57.415Z,101658.64
2018-05-08T21:02:30.622Z,101661.47
2018-05-08T21:05:03.488Z,101662.51
2018-05-08T21:07:36.241Z,101665.56
2018-05-08T21:10:08.762Z,101662.16
2018-05-08T21:12:40.690Z,101667.11
2018-05-08T21:15:14.342Z,101667.95
2018-05-08T21:17:48.279Z,101661.13
2018-05-08T21:20:21.718Z,101661.84
2018-05-08T21:22:54.729Z,101655.08
2018-05-08T21:25:27.927Z,101659.63
2018-05-08T21:28:05.573Z,101664.98
2018-05-08T21:30:43.991Z,101669.67
2018-05-08T21:33:17.709Z,101669.10
2018-05-08T21:35:50.705Z,101668.53
2018-05-08T21:38:24.121Z,101669.62
2018-05-08T21:40:57.544Z,101679.53
2018-05-08T21:43:30.547Z,101670.91
2018-05-08T21:46:03.432Z,101680.06
2018-05-08T21:48:36.089Z,101682.05
2018-05-08T21:51:08.503Z,101684.64
2018-05-08T21:53:42.507Z,101675.98
2018-05-08T21:56:15.502Z,101676.21
2018-05-08T21:58:48.273Z,101669.19
2018-05-08T22:01:20.908Z,101667.75
2018-05-08T22:03:52.768Z,101661.77
2018-05-08T22:06:26.292Z,101653.84
2018-05-08T22:08:58.911Z,101658.02
2018-05-08T22:11:31.583Z,101649.44
2018-05-08T22:14:05.366Z,101644.70
2018-05-08T22:16:37.968Z,101649.11
2018-05-08T22:19:10.654Z,101646.52
2018-05-08T22:21:42.450Z,101643.58
2018-05-08T22:26:28.480Z,101641.60
2018-05-08T22:29:00.309Z,101634.58
2018-05-08T22:31:31.906Z,101635.47
2018-05-08T22:34:04.500Z,101633.33
2018-05-08T22:36:37.603Z,101628.33
2018-05-08T22:39:09.369Z,101634.75
2018-05-08T22:41:41.014Z,101629.17
2018-05-08T22:44:13.083Z,101622.22
2018-05-08T22:46:45.096Z,101633.91
2018-05-08T22:49:46.155Z,101623.53
2018-05-08T22:52:18.708Z,101628.38
2018-05-08T22:54:50.462Z,101633.09
2018-05-08T22:57:21.980Z,101639.00
2018-05-08T22:59:53.588Z,101636.81
2018-05-08T23:05:01.594Z,101642.12
2018-05-08T23:07:33.012Z,101630.31
2018-05-08T23:10:05.003Z,101622.77
2018-05-08T23:12:36.604Z,101624.92
2018-05-08T23:15:08.343Z,101623.14
2018-05-08T23:17:40.140Z,101621.38
2018-05-08T23:20:13.475Z,101617.87
2018-05-08T23:22:45.219Z,101615.96
2018-05-08T23:26:09.995Z,101614.48
2018-05-08T23:28:42.068Z,101610.04
2018-05-08T23:31:15.519Z,101611.03
2018-05-08T23:33:48.668Z,101613.92
2018-05-08T23:36:20.299Z,101615.56
2018-05-08T23:38:52.009Z,101608.94
2018-05-08T23:41:23.607Z,101607.46
2018-05-08T23:43:55.403Z,101607.31
2018-05-08T23:46:27.150Z,101611.19
2018-05-08T23:51:14.627Z,101603.99
2018-05-08T23:53:46.173Z,101610.61
2018-05-08T23:56:18.141Z,101603.50
2018-05-08T23:59:24.891Z,101610.20
